Time;durP1;ratioP1;P1;durP2;ratioP2;P2;SDS_P1;SDS_P2;PMS_P1;PMS_P2;Temp;Humidity;BMP_temperature;BMP_pressure;BME280_temperature;BME280_humidity;BME280_pressure;Samples;Min_cycle;Max_cycle;Signal;HPM_P1;HPM_P2
2023/06/21 00:01:43;;;;;;;;;;;24.10;90.10;;;;;;5093742;28;19920;-40
2023/06/21 00:04:08;;;;;;;;;;;24.10;90.10;;;;;;5093799;28;20004;-41
2023/06/21 00:06:37;;;;;;;;;;;24.10;90.10;;;;;;5093734;28;19908;-40
2023/06/21 00:09:05;;;;;;;;;;;24.10;90.10;;;;;;5094068;28;19950;-40
2023/06/21 00:11:31;;;;;;;;;;;24.10;90.10;;;;;;5093988;28;20003;-40
2023/06/21 00:13:57;;;;;;;;;;;24.10;90.10;;;;;;5094074;28;19967;-40
2023/06/21 00:16:23;;;;;;;;;;;24.10;90.10;;;;;;5093996;28;20301;-40
2023/06/21 00:18:48;;;;;;;;;;;24.10;90.10;;;;;;5093700;28;19909;-40
2023/06/21 00:21:14;;;;;;;;;;;24.10;90.10;;;;;;5093822;28;19924;-40
2023/06/21 00:23:41;;;;;;;;;;;24.10;90.10;;;;;;5093567;28;19977;-40
2023/06/21 00:26:07;;;;;;;;;;;24.10;90.10;;;;;;5093840;28;19934;-40
2023/06/21 00:28:32;;;;;;;;;;;24.10;90.10;;;;;;5094226;28;19915;-40
2023/06/21 00:30:58;;;;;;;;;;;24.10;90.10;;;;;;5093586;28;20274;-40
2023/06/21 00:33:23;;;;;;;;;;;24.10;90.10;;;;;;5095337;28;19953;-40
2023/06/21 00:35:49;;;;;;;;;;;24.10;90.10;;;;;;5097511;28;19908;-40
2023/06/21 00:38:14;;;;;;;;;;;24.10;90.10;;;;;;5097888;28;20371;-40
2023/06/21 00:40:39;;;;;;;;;;;24.10;90.10;;;;;;5097990;28;20406;-41
2023/06/21 00:43:05;;;;;;;;;;;24.10;90.10;;;;;;5097405;28;19915;-40
2023/06/21 00:45:38;;;;;;;;;;;24.10;90.10;;;;;;5097321;28;20000;-40
2023/06/21 00:48:03;;;;;;;;;;;24.10;90.10;;;;;;5097540;28;19924;-41
2023/06/21 00:50:29;;;;;;;;;;;24.10;90.10;;;;;;5097569;28;19908;-38
2023/06/21 00:52:54;;;;;;;;;;;24.10;90.10;;;;;;5097528;28;20350;-40
2023/06/21 00:55:21;;;;;;;;;;;24.10;90.10;;;;;;5097459;28;19908;-40
2023/06/21 00:57:47;;;;;;;;;;;24.10;90.10;;;;;;5097445;28;19908;-40
2023/06/21 01:00:19;;;;;;;;;;;24.10;90.10;;;;;;5097154;28;19919;-40
2023/06/21 01:02:46;;;;;;;;;;;24.10;90.10;;;;;;5097312;28;19916;-40
2023/06/21 01:05:12;;;;;;;;;;;24.10;90.10;;;;;;5097326;28;20022;-40
2023/06/21 01:08:00;;;;;;;;;;;24.10;90.20;;;;;;5097342;28;19908;-40
2023/06/21 01:10:44;;;;;;;;;;;24.10;90.20;;;;;;5097094;28;19908;-40
2023/06/21 01:13:15;;;;;;;;;;;24.10;90.20;;;;;;5097060;28;19914;-39
2023/06/21 01:15:44;;;;;;;;;;;24.10;90.20;;;;;;5096876;28;19931;-40
2023/06/21 01:18:12;;;;;;;;;;;24.10;90.20;;;;;;5097442;28;19915;-41
2023/06/21 01:20:38;;;;;;;;;;;24.10;90.20;;;;;;5096653;28;19930;-40
2023/06/21 01:23:09;;;;;;;;;;;24.10;90.20;;;;;;5096731;28;20438;-40
2023/06/21 01:25:47;;;;;;;;;;;24.10;90.20;;;;;;5096533;28;19955;-40
2023/06/21 01:28:31;;;;;;;;;;;24.10;90.20;;;;;;5096686;28;20455;-40
2023/06/21 01:30:58;;;;;;;;;;;24.10;90.30;;;;;;5096762;28;20248;-41
2023/06/21 01:33:24;;;;;;;;;;;24.10;90.30;;;;;;5096737;28;19912;-40
2023/06/21 01:35:52;;;;;;;;;;;24.10;90.30;;;;;;5096438;28;19961;-40
2023/06/21 01:38:18;;;;;;;;;;;24.10;90.30;;;;;;5096741;28;19963;-40
2023/06/21 01:40:44;;;;;;;;;;;24.10;90.30;;;;;;5096257;28;20003;-40
2023/06/21 01:43:10;;;;;;;;;;;24.10;90.30;;;;;;5096495;28;20450;-40
2023/06/21 01:45:36;;;;;;;;;;;24.10;90.30;;;;;;5095534;28;19908;-40
2023/06/21 01:48:02;;;;;;;;;;;24.10;90.30;;;;;;5096103;28;20011;-40
2023/06/21 01:50:28;;;;;;;;;;;24.10;90.30;;;;;;5096497;28;19912;-40
2023/06/21 01:52:55;;;;;;;;;;;24.10;90.30;;;;;;5096392;28;20367;-40
2023/06/21 01:55:21;;;;;;;;;;;24.10;90.30;;;;;;5096395;28;19942;-40
2023/06/21 01:57:47;;;;;;;;;;;24.10;90.30;;;;;;5096329;28;19908;-40
2023/06/21 02:00:17;;;;;;;;;;;24.10;90.30;;;;;;5095981;28;20007;-40
2023/06/21 02:02:47;;;;;;;;;;;24.10;90.40;;;;;;5096157;28;19924;-40
2023/06/21 02:05:13;;;;;;;;;;;24.10;90.40;;;;;;5096152;28;19912;-40
2023/06/21 02:07:39;;;;;;;;;;;24.10;90.40;;;;;;5095926;28;19973;-40
2023/06/21 02:10:05;;;;;;;;;;;24.10;90.40;;;;;;5096119;28;19912;-40
2023/06/21 02:12:33;;;;;;;;;;;24.10;90.40;;;;;;5095778;28;19987;-41
2023/06/21 02:14:59;;;;;;;;;;;24.10;90.40;;;;;;5077858;28;20342;-40
2023/06/21 02:17:24;;;;;;;;;;;24.10;90.40;;;;;;5095583;28;19908;-40
2023/06/21 02:19:50;;;;;;;;;;;24.10;90.40;;;;;;5095659;28;20347;-40
2023/06/21 02:22:15;;;;;;;;;;;24.10;90.40;;;;;;5095730;28;19978;-40
2023/06/21 02:24:41;;;;;;;;;;;24.10;90.40;;;;;;5095451;28;19908;-40
2023/06/21 02:27:07;;;;;;;;;;;24.10;90.40;;;;;;5095752;28;19912;-40
2023/06/21 02:29:32;;;;;;;;;;;24.10;90.50;;;;;;5095383;28;19962;-40
2023/06/21 02:31:57;;;;;;;;;;;24.10;90.50;;;;;;5095632;28;19908;-40
2023/06/21 02:34:24;;;;;;;;;;;24.10;90.50;;;;;;5095609;28;19915;-40
2023/06/21 02:36:53;;;;;;;;;;;24.10;90.50;;;;;;5095895;28;19951;-40
2023/06/21 02:39:22;;;;;;;;;;;24.10;90.50;;;;;;5095490;28;19962;-41
2023/06/21 02:41:48;;;;;;;;;;;24.10;90.50;;;;;;5095124;28;19969;-40
2023/06/21 02:44:14;;;;;;;;;;;24.10;90.50;;;;;;5095160;28;19917;-40
2023/06/21 02:46:39;;;;;;;;;;;24.10;90.50;;;;;;5094898;28;19912;-40
2023/06/21 02:49:04;;;;;;;;;;;24.10;90.60;;;;;;5077211;28;19912;-40
2023/06/21 02:51:30;;;;;;;;;;;24.10;90.60;;;;;;5095291;28;20006;-39
2023/06/21 02:53:55;;;;;;;;;;;24.10;90.50;;;;;;5094963;28;19953;-40
2023/06/21 02:56:21;;;;;;;;;;;24.10;90.60;;;;;;5094919;28;20244;-39
2023/06/21 02:58:46;;;;;;;;;;;24.10;90.60;;;;;;5094954;28;19915;-40
2023/06/21 03:01:13;;;;;;;;;;;24.10;90.60;;;;;;5094803;28;20385;-40
2023/06/21 03:03:41;;;;;;;;;;;24.10;90.60;;;;;;5094803;28;19908;-40
2023/06/21 03:06:06;;;;;;;;;;;24.10;90.60;;;;;;5095095;28;20053;-40
2023/06/21 03:08:32;;;;;;;;;;;24.10;90.60;;;;;;5095037;28;19981;-40
2023/06/21 03:10:57;;;;;;;;;;;24.10;90.60;;;;;;5094975;28;19908;-41
2023/06/21 03:13:23;;;;;;;;;;;24.10;90.60;;;;;;5094867;28;19908;-40
2023/06/21 03:15:48;;;;;;;;;;;24.10;90.60;;;;;;5094712;28;19914;-40
2023/06/21 03:18:15;;;;;;;;;;;24.10;90.70;;;;;;5094544;28;20275;-40
2023/06/21 03:20:42;;;;;;;;;;;24.10;90.70;;;;;;5094660;28;19908;-41
2023/06/21 03:23:08;;;;;;;;;;;24.10;90.70;;;;;;5094661;28;19961;-40
2023/06/21 03:25:33;;;;;;;;;;;24.10;90.70;;;;;;5094240;28;19916;-40
2023/06/21 03:27:59;;;;;;;;;;;24.10;90.60;;;;;;5094385;28;19915;-40
2023/06/21 03:30:25;;;;;;;;;;;24.10;90.70;;;;;;5094291;28;19961;-41
2023/06/21 03:32:50;;;;;;;;;;;24.10;90.70;;;;;;5094480;28;19954;-40
2023/06/21 03:35:16;;;;;;;;;;;24.10;90.70;;;;;;5094551;28;20304;-40
2023/06/21 03:37:42;;;;;;;;;;;24.10;90.70;;;;;;5094562;28;19908;-40
2023/06/21 03:40:13;;;;;;;;;;;24.10;90.70;;;;;;5094398;28;20255;-40
2023/06/21 03:42:39;;;;;;;;;;;24.10;90.70;;;;;;5094305;28;19923;-40
2023/06/21 03:45:05;;;;;;;;;;;24.10;90.70;;;;;;5094066;28;19911;-40
2023/06/21 03:47:30;;;;;;;;;;;24.10;90.70;;;;;;5075899;28;20058;-40
2023/06/21 03:49:57;;;;;;;;;;;24.10;90.70;;;;;;5093943;28;19909;-40
2023/06/21 03:52:23;;;;;;;;;;;24.10;90.70;;;;;;5094217;28;19919;-40
2023/06/21 03:54:49;;;;;;;;;;;24.10;90.70;;;;;;5094172;28;20351;-40
2023/06/21 03:57:14;;;;;;;;;;;24.10;90.70;;;;;;5094054;28;19970;-40
2023/06/21 03:59:40;;;;;;;;;;;24.20;90.70;;;;;;5094190;28;19908;-40
2023/06/21 04:02:05;;;;;;;;;;;24.10;90.70;;;;;;5094244;28;19920;-40
2023/06/21 04:04:31;;;;;;;;;;;24.20;90.70;;;;;;5093797;28;19909;-40
2023/06/21 04:06:56;;;;;;;;;;;24.10;90.70;;;;;;5093923;28;19915;-40
2023/06/21 04:09:22;;;;;;;;;;;24.20;90.70;;;;;;5100413;28;19918;-40
2023/06/21 04:11:47;;;;;;;;;;;24.20;90.70;;;;;;5100773;28;20275;-41
2023/06/21 04:14:15;;;;;;;;;;;24.20;90.60;;;;;;5100759;28;19948;-41
2023/06/21 04:16:40;;;;;;;;;;;24.20;90.60;;;;;;5100959;28;20358;-40
2023/06/21 04:19:06;;;;;;;;;;;24.20;90.50;;;;;;5100434;28;19959;-40
2023/06/21 04:21:31;;;;;;;;;;;24.20;90.50;;;;;;5100125;28;20135;-40
2023/06/21 04:23:57;;;;;;;;;;;24.20;90.50;;;;;;5100696;28;19908;-40
2023/06/21 04:26:22;;;;;;;;;;;24.20;90.50;;;;;;5082340;28;20002;-40
2023/06/21 04:28:49;;;;;;;;;;;24.20;90.50;;;;;;5100385;28;19915;-40
2023/06/21 04:31:15;;;;;;;;;;;24.20;90.50;;;;;;5082367;28;20367;-40
2023/06/21 04:33:40;;;;;;;;;;;24.20;90.50;;;;;;5100097;28;19915;-40
2023/06/21 04:36:05;;;;;;;;;;;24.20;90.50;;;;;;5100373;28;19915;-40
2023/06/21 04:38:33;;;;;;;;;;;24.20;90.50;;;;;;5082296;28;20031;-40
2023/06/21 04:40:58;;;;;;;;;;;24.20;90.50;;;;;;5100221;28;19951;-40
2023/06/21 04:43:25;;;;;;;;;;;24.20;90.50;;;;;;5100386;28;19954;-40
2023/06/21 04:45:51;;;;;;;;;;;24.20;90.50;;;;;;5100078;28;20000;-40
2023/06/21 04:48:16;;;;;;;;;;;24.20;90.50;;;;;;5100447;28;20386;-40
2023/06/21 04:50:45;;;;;;;;;;;24.20;90.50;;;;;;5100526;28;20409;-40
2023/06/21 04:53:11;;;;;;;;;;;24.20;90.50;;;;;;5100386;28;19915;-40
2023/06/21 04:55:42;;;;;;;;;;;24.20;90.50;;;;;;5082017;28;19916;-40
2023/06/21 04:58:08;;;;;;;;;;;24.20;90.50;;;;;;5082996;28;19915;-40
2023/06/21 05:00:35;;;;;;;;;;;24.30;90.50;;;;;;5100228;28;19908;-40
2023/06/21 05:03:00;;;;;;;;;;;24.20;90.50;;;;;;5099862;28;20007;-40
2023/06/21 05:05:25;;;;;;;;;;;24.20;90.50;;;;;;5099913;28;20386;-40
2023/06/21 05:07:51;;;;;;;;;;;24.20;90.50;;;;;;5100273;28;20374;-40
2023/06/21 05:10:17;;;;;;;;;;;24.20;90.50;;;;;;5100103;28;20006;-40
2023/06/21 05:12:42;;;;;;;;;;;24.30;90.50;;;;;;5100086;28;19934;-40
2023/06/21 05:15:08;;;;;;;;;;;24.30;90.50;;;;;;5099658;28;19915;-40
2023/06/21 05:17:34;;;;;;;;;;;24.20;90.50;;;;;;5100401;28;20396;-40
2023/06/21 05:19:59;;;;;;;;;;;24.30;90.60;;;;;;5096413;28;20427;-40
2023/06/21 05:22:25;;;;;;;;;;;24.20;90.50;;;;;;5096661;28;20019;-40
2023/06/21 05:24:50;;;;;;;;;;;24.20;90.50;;;;;;5096426;28;19908;-40
2023/06/21 05:27:16;;;;;;;;;;;24.30;90.60;;;;;;5096472;28;19909;-40
2023/06/21 05:29:41;;;;;;;;;;;24.30;90.60;;;;;;5096756;28;19995;-40
2023/06/21 05:32:07;;;;;;;;;;;24.30;90.80;;;;;;5078511;28;19995;-40
2023/06/21 05:34:32;;;;;;;;;;;24.30;90.60;;;;;;5096591;28;20279;-40
2023/06/21 05:36:58;;;;;;;;;;;24.30;90.60;;;;;;5096065;28;20355;-40
2023/06/21 05:39:23;;;;;;;;;;;24.30;90.60;;;;;;5095883;28;19954;-40
2023/06/21 05:41:49;;;;;;;;;;;24.30;90.60;;;;;;5096078;28;19916;-40
2023/06/21 05:44:15;;;;;;;;;;;24.30;90.60;;;;;;5093810;28;20013;-41
2023/06/21 05:46:40;;;;;;;;;;;24.30;90.70;;;;;;5091924;28;19919;-40
2023/06/21 05:49:06;;;;;;;;;;;24.30;90.70;;;;;;5086637;28;19908;-40
2023/06/21 05:51:31;;;;;;;;;;;24.30;90.30;;;;;;5091567;28;19920;-45
2023/06/21 05:53:57;;;;;;;;;;;24.30;90.00;;;;;;5092567;28;19918;-40
2023/06/21 05:56:26;;;;;;;;;;;24.30;89.90;;;;;;5096235;28;19958;-40
2023/06/21 05:58:52;;;;;;;;;;;24.30;89.90;;;;;;5095642;28;19912;-40
2023/06/21 06:01:18;;;;;;;;;;;24.30;90.10;;;;;;5096239;28;19928;-41
2023/06/21 06:03:43;;;;;;;;;;;24.30;90.60;;;;;;5096539;28;20282;-40
2023/06/21 06:06:09;;;;;;;;;;;24.30;90.50;;;;;;5096199;28;19958;-41
2023/06/21 06:08:35;;;;;;;;;;;24.30;90.40;;;;;;5101446;28;19916;-40
2023/06/21 06:11:00;;;;;;;;;;;24.30;90.20;;;;;;5105070;28;19930;-40
2023/06/21 06:13:28;;;;;;;;;;;24.30;90.20;;;;;;5102461;28;19926;-41
2023/06/21 06:15:53;;;;;;;;;;;24.30;90.30;;;;;;5093002;28;19912;-41
2023/06/21 06:18:19;;;;;;;;;;;24.30;90.40;;;;;;5096672;28;19912;-41
2023/06/21 06:20:45;;;;;;;;;;;24.30;90.50;;;;;;5104811;28;20274;-44
2023/06/21 06:23:11;;;;;;;;;;;24.30;90.50;;;;;;5115725;28;20065;-40
2023/06/21 06:25:36;;;;;;;;;;;24.30;90.50;;;;;;5098811;28;20398;-41
2023/06/21 06:28:02;;;;;;;;;;;24.30;90.50;;;;;;5098360;28;19916;-41
2023/06/21 06:30:28;;;;;;;;;;;24.40;90.60;;;;;;5096190;28;19912;-40
2023/06/21 06:32:53;;;;;;;;;;;24.30;90.60;;;;;;5097435;28;19935;-40
2023/06/21 06:35:19;;;;;;;;;;;24.40;90.70;;;;;;5095116;28;20418;-40
2023/06/21 06:37:44;;;;;;;;;;;24.40;90.70;;;;;;5093750;28;19999;-40
2023/06/21 06:40:10;;;;;;;;;;;24.40;90.80;;;;;;5098305;28;19914;-39
2023/06/21 06:42:35;;;;;;;;;;;24.40;90.80;;;;;;5115351;28;19916;-40
2023/06/21 06:45:01;;;;;;;;;;;24.40;90.80;;;;;;5113504;28;19934;-41
2023/06/21 06:47:28;;;;;;;;;;;24.40;90.80;;;;;;5078330;28;19920;-42
2023/06/21 06:49:53;;;;;;;;;;;24.40;90.80;;;;;;5093315;28;19934;-40
2023/06/21 06:52:19;;;;;;;;;;;24.40;90.90;;;;;;5074685;28;20363;-40
2023/06/21 06:54:44;;;;;;;;;;;24.40;91.00;;;;;;5076762;28;19943;-40
2023/06/21 06:57:10;;;;;;;;;;;24.40;91.00;;;;;;5094905;28;19908;-39
2023/06/21 06:59:35;;;;;;;;;;;24.50;91.10;;;;;;5093348;28;20436;-39
2023/06/21 07:02:01;;;;;;;;;;;24.50;91.00;;;;;;5102702;28;19920;-39
2023/06/21 07:04:28;;;;;;;;;;;24.50;91.00;;;;;;5103807;28;19964;-40
2023/06/21 07:06:54;;;;;;;;;;;24.50;91.10;;;;;;5114693;28;19914;-39
2023/06/21 07:09:19;;;;;;;;;;;24.50;91.10;;;;;;5115208;28;19907;-40
2023/06/21 07:11:45;;;;;;;;;;;24.50;91.00;;;;;;5106095;28;20278;-39
2023/06/21 07:14:10;;;;;;;;;;;24.50;91.10;;;;;;5097211;28;19915;-39
2023/06/21 07:16:40;;;;;;;;;;;24.50;91.10;;;;;;5114950;28;19922;-38
2023/06/21 07:19:05;;;;;;;;;;;24.50;91.10;;;;;;5115035;28;19911;-38
2023/06/21 07:21:31;;;;;;;;;;;24.50;91.10;;;;;;5112069;28;19973;-38
2023/06/21 07:23:56;;;;;;;;;;;24.50;91.10;;;;;;5106324;28;19911;-41
2023/06/21 07:26:22;;;;;;;;;;;24.50;91.10;;;;;;5104861;28;19961;-40
2023/06/21 07:28:47;;;;;;;;;;;24.50;91.10;;;;;;5092060;28;19943;-40
2023/06/21 07:31:13;;;;;;;;;;;24.60;91.20;;;;;;5098583;28;20309;-40
2023/06/21 07:33:39;;;;;;;;;;;24.50;91.10;;;;;;5108510;28;19916;-39
2023/06/21 07:36:05;;;;;;;;;;;24.50;91.20;;;;;;5093516;28;20282;-40
2023/06/21 07:38:30;;;;;;;;;;;24.60;91.20;;;;;;5091988;28;19920;-44
2023/06/21 07:40:56;;;;;;;;;;;24.60;91.20;;;;;;5113422;28;20362;-40
2023/06/21 07:43:21;;;;;;;;;;;24.60;91.20;;;;;;5113727;28;20065;-40
2023/06/21 07:45:47;;;;;;;;;;;24.50;91.10;;;;;;5103947;28;19909;-40
2023/06/21 07:48:12;;;;;;;;;;;24.60;91.10;;;;;;5094710;28;19976;-40
2023/06/21 07:50:39;;;;;;;;;;;24.60;91.20;;;;;;5099509;28;20393;-41
2023/06/21 07:53:05;;;;;;;;;;;24.60;91.20;;;;;;5094030;28;19966;-39
2023/06/21 07:55:31;;;;;;;;;;;24.60;91.10;;;;;;5094065;28;19962;-39
2023/06/21 07:57:56;;;;;;;;;;;24.60;91.20;;;;;;5091756;28;19948;-40
2023/06/21 08:00:22;;;;;;;;;;;24.60;91.20;;;;;;5092916;28;19959;-40
2023/06/21 08:02:54;;;;;;;;;;;24.60;91.20;;;;;;5074872;28;20343;-40
2023/06/21 08:05:20;;;;;;;;;;;24.60;91.20;;;;;;5093823;28;20433;-41
2023/06/21 08:07:45;;;;;;;;;;;24.70;91.20;;;;;;5092840;28;19958;-41
2023/06/21 08:10:12;;;;;;;;;;;24.70;91.20;;;;;;5107740;28;20301;-40
2023/06/21 08:12:37;;;;;;;;;;;24.70;91.10;;;;;;5110258;28;20312;-41
2023/06/21 08:15:03;;;;;;;;;;;24.60;91.10;;;;;;5093094;28;19916;-39
2023/06/21 08:17:28;;;;;;;;;;;24.70;91.10;;;;;;5094159;28;20299;-39
2023/06/21 08:19:54;;;;;;;;;;;24.70;91.10;;;;;;5093949;28;20010;-39
2023/06/21 08:22:20;;;;;;;;;;;24.70;91.10;;;;;;5091543;28;19963;-39
2023/06/21 08:24:46;;;;;;;;;;;24.70;91.10;;;;;;5074885;28;19919;-40
2023/06/21 08:27:14;;;;;;;;;;;24.70;91.10;;;;;;5093493;28;19908;-40
2023/06/21 08:29:39;;;;;;;;;;;24.70;91.10;;;;;;5093789;28;19959;-39
2023/06/21 08:32:05;;;;;;;;;;;24.70;91.10;;;;;;5092553;28;20381;-40
2023/06/21 08:34:30;;;;;;;;;;;24.70;91.10;;;;;;5093966;28;19908;-39
2023/06/21 08:36:56;;;;;;;;;;;24.70;91.10;;;;;;5092123;28;19919;-40
2023/06/21 08:39:21;;;;;;;;;;;24.70;91.10;;;;;;5092089;28;19912;-39
2023/06/21 08:41:47;;;;;;;;;;;24.70;91.10;;;;;;5091953;28;19931;-40
2023/06/21 08:44:12;;;;;;;;;;;24.70;91.10;;;;;;5098857;28;19961;-40
2023/06/21 08:46:39;;;;;;;;;;;24.70;91.10;;;;;;5095749;28;19915;-41
2023/06/21 08:49:05;;;;;;;;;;;24.70;91.10;;;;;;5092927;28;19908;-40
2023/06/21 08:51:34;;;;;;;;;;;24.70;91.10;;;;;;5091236;28;20389;-42
2023/06/21 08:53:59;;;;;;;;;;;24.70;91.10;;;;;;5092564;28;19920;-40
2023/06/21 08:56:26;;;;;;;;;;;24.70;91.10;;;;;;5094824;28;20426;-39
2023/06/21 08:58:54;;;;;;;;;;;24.70;91.10;;;;;;5093404;28;20003;-39
2023/06/21 09:01:21;;;;;;;;;;;24.70;91.10;;;;;;5093227;28;19920;-40
2023/06/21 09:03:57;;;;;;;;;;;24.80;91.10;;;;;;5086527;28;19933;-39
2023/06/21 09:06:24;;;;;;;;;;;24.70;91.10;;;;;;5083451;28;19916;-40
2023/06/21 09:08:54;;;;;;;;;;;24.80;91.10;;;;;;5094606;28;20371;-39
2023/06/21 09:11:22;;;;;;;;;;;24.80;91.10;;;;;;5095690;28;19920;-40
2023/06/21 09:13:49;;;;;;;;;;;24.80;91.10;;;;;;5077472;28;19920;-40
2023/06/21 09:16:14;;;;;;;;;;;24.80;91.10;;;;;;5103913;28;19998;-40
2023/06/21 09:18:40;;;;;;;;;;;24.80;91.10;;;;;;5095070;28;19919;-40
2023/06/21 09:21:08;;;;;;;;;;;24.80;91.10;;;;;;5096240;28;19920;-41
2023/06/21 09:23:40;;;;;;;;;;;24.80;91.10;;;;;;5101455;28;19911;-40
2023/06/21 09:26:09;;;;;;;;;;;24.80;91.10;;;;;;5111783;28;20024;-40
2023/06/21 09:28:34;;;;;;;;;;;24.90;91.20;;;;;;5092516;28;19919;-40
2023/06/21 09:31:00;;;;;;;;;;;24.80;91.10;;;;;;5095032;28;19912;-40
2023/06/21 09:33:26;;;;;;;;;;;24.90;91.10;;;;;;5094605;28;19912;-40
2023/06/21 09:35:51;;;;;;;;;;;24.90;91.20;;;;;;5095295;28;19922;-41
2023/06/21 09:38:28;;;;;;;;;;;24.90;91.20;;;;;;5093886;28;19938;-41
2023/06/21 09:40:54;;;;;;;;;;;24.90;91.20;;;;;;5103907;28;20374;-41
2023/06/21 09:43:20;;;;;;;;;;;24.90;91.20;;;;;;5102987;28;19988;-42
2023/06/21 09:46:15;;;;;;;;;;;24.90;91.20;;;;;;5094636;28;19912;-42
2023/06/21 09:48:41;;;;;;;;;;;24.90;91.20;;;;;;5081081;28;19927;-40
2023/06/21 09:51:11;;;;;;;;;;;24.90;91.20;;;;;;5095101;28;19912;-40
2023/06/21 09:53:36;;;;;;;;;;;24.90;91.20;;;;;;5092518;28;20360;-40
2023/06/21 09:56:02;;;;;;;;;;;24.90;91.20;;;;;;5094746;28;19934;-41
2023/06/21 09:58:28;;;;;;;;;;;24.90;91.20;;;;;;5092840;28;20274;-41
2023/06/21 10:00:56;;;;;;;;;;;24.90;91.20;;;;;;5094104;28;19914;-41
2023/06/21 10:03:22;;;;;;;;;;;24.90;91.20;;;;;;5094986;28;20019;-40
2023/06/21 10:05:55;;;;;;;;;;;24.90;91.20;;;;;;5095389;28;19959;-41
2023/06/21 10:08:24;;;;;;;;;;;24.90;91.20;;;;;;5095230;28;20721;-41
2023/06/21 10:10:49;;;;;;;;;;;24.90;91.20;;;;;;5094551;28;20428;-44
2023/06/21 10:13:15;;;;;;;;;;;24.90;91.20;;;;;;5095844;28;19909;-42
2023/06/21 10:15:44;;;;;;;;;;;24.90;91.20;;;;;;5109118;28;19908;-41
2023/06/21 10:18:12;;;;;;;;;;;24.90;91.40;;;;;;5093343;28;19912;-42
2023/06/21 10:20:38;;;;;;;;;;;25.00;91.20;;;;;;5094068;28;19912;-41
2023/06/21 10:23:04;;;;;;;;;;;24.90;91.20;;;;;;5099165;28;19920;-40
2023/06/21 10:25:30;;;;;;;;;;;25.00;91.20;;;;;;5107271;28;20330;-42
2023/06/21 10:27:58;;;;;;;;;;;24.90;91.20;;;;;;5091968;28;20311;-41
2023/06/21 10:30:25;;;;;;;;;;;24.90;91.20;;;;;;5096139;28;19908;-40
2023/06/21 10:32:51;;;;;;;;;;;25.00;91.20;;;;;;5092828;28;19919;-40
2023/06/21 10:35:19;;;;;;;;;;;25.00;91.20;;;;;;5095023;28;19908;-40
2023/06/21 10:37:54;;;;;;;;;;;25.00;91.30;;;;;;5095442;28;19916;-40
2023/06/21 10:40:19;;;;;;;;;;;25.00;91.30;;;;;;5095706;28;20347;-40
2023/06/21 10:42:45;;;;;;;;;;;25.00;91.20;;;;;;5077086;28;19916;-40
2023/06/21 10:45:12;;;;;;;;;;;25.00;91.20;;;;;;5094795;28;19909;-40
2023/06/21 10:47:38;;;;;;;;;;;25.00;91.20;;;;;;5095227;28;19920;-41
2023/06/21 10:50:05;;;;;;;;;;;25.00;91.20;;;;;;5095022;28;19908;-40
2023/06/21 10:52:30;;;;;;;;;;;25.00;91.20;;;;;;5093888;28;19920;-40
2023/06/21 10:54:57;;;;;;;;;;;25.00;91.10;;;;;;5101005;28;19916;-40
2023/06/21 10:57:28;;;;;;;;;;;25.00;91.10;;;;;;5099388;28;19916;-40
2023/06/21 10:59:59;;;;;;;;;;;25.00;91.10;;;;;;5102511;28;19917;-40
2023/06/21 11:02:24;;;;;;;;;;;25.00;91.10;;;;;;5089735;28;20283;-40
2023/06/21 11:05:08;;;;;;;;;;;25.00;91.10;;;;;;5098674;28;19912;-39
2023/06/21 11:07:34;;;;;;;;;;;25.00;91.10;;;;;;5093225;28;19912;-40
2023/06/21 11:10:03;;;;;;;;;;;25.00;91.00;;;;;;5075831;28;19908;-39
2023/06/21 11:12:28;;;;;;;;;;;25.00;91.00;;;;;;5090911;28;19920;-39
2023/06/21 11:14:54;;;;;;;;;;;25.00;91.00;;;;;;5101188;28;19965;-40
2023/06/21 11:17:23;;;;;;;;;;;25.00;91.00;;;;;;5110558;28;19916;-39
2023/06/21 11:19:48;;;;;;;;;;;25.00;91.00;;;;;;5110067;28;20006;-41
2023/06/21 11:22:15;;;;;;;;;;;25.00;90.90;;;;;;5103190;28;20015;-42
2023/06/21 11:24:49;;;;;;;;;;;25.00;91.00;;;;;;5113756;28;19908;-40
2023/06/21 11:27:14;;;;;;;;;;;25.00;90.80;;;;;;5114582;28;19907;-40
2023/06/21 11:29:40;;;;;;;;;;;25.00;90.40;;;;;;5105683;28;19935;-39
2023/06/21 11:32:11;;;;;;;;;;;25.00;90.30;;;;;;5092403;28;20362;-40
2023/06/21 11:34:49;;;;;;;;;;;25.00;90.40;;;;;;5092876;28;20327;-40
2023/06/21 11:37:31;;;;;;;;;;;25.00;90.40;;;;;;5087417;28;19947;-40
2023/06/21 11:39:58;;;;;;;;;;;25.00;90.40;;;;;;5111279;28;20316;-40
2023/06/21 11:42:25;;;;;;;;;;;25.00;90.20;;;;;;5096577;28;19973;-39
2023/06/21 11:44:53;;;;;;;;;;;25.10;90.40;;;;;;5106096;28;20313;-43
2023/06/21 11:47:18;;;;;;;;;;;25.10;90.50;;;;;;5092321;28;19927;-42
2023/06/21 11:49:48;;;;;;;;;;;25.10;90.50;;;;;;5096095;28;19939;-42
2023/06/21 11:52:13;;;;;;;;;;;25.10;90.50;;;;;;5092540;28;19912;-41
2023/06/21 11:54:39;;;;;;;;;;;25.10;90.50;;;;;;5091330;28;19922;-45
2023/06/21 11:57:05;;;;;;;;;;;25.10;90.40;;;;;;5096686;28;19994;-39
2023/06/21 11:59:31;;;;;;;;;;;25.10;90.50;;;;;;5093684;28;20054;-41
2023/06/21 12:02:02;;;;;;;;;;;25.10;90.40;;;;;;5094326;28;19963;-41
2023/06/21 12:04:27;;;;;;;;;;;25.10;90.40;;;;;;5094410;28;19956;-41
2023/06/21 12:06:53;;;;;;;;;;;25.10;90.40;;;;;;5093850;28;19916;-40
2023/06/21 12:09:19;;;;;;;;;;;25.10;90.40;;;;;;5093652;28;20351;-41
2023/06/21 12:11:47;;;;;;;;;;;25.10;90.30;;;;;;5093753;28;19908;-44
2023/06/21 12:14:13;;;;;;;;;;;25.10;90.20;;;;;;5095956;28;19919;-41
2023/06/21 12:16:41;;;;;;;;;;;25.10;90.20;;;;;;5114203;28;19911;-40
2023/06/21 12:19:07;;;;;;;;;;;25.10;90.20;;;;;;5100554;28;19916;-39
2023/06/21 12:21:33;;;;;;;;;;;25.10;90.30;;;;;;5092359;28;19927;-40
2023/06/21 12:23:59;;;;;;;;;;;25.20;90.20;;;;;;5089997;28;19948;-39
2023/06/21 12:26:27;;;;;;;;;;;25.10;90.20;;;;;;5093479;28;20373;-42
2023/06/21 12:28:52;;;;;;;;;;;25.20;90.20;;;;;;5115271;28;19908;-42
2023/06/21 12:31:18;;;;;;;;;;;25.10;90.00;;;;;;5118042;28;19908;-42
2023/06/21 12:33:43;;;;;;;;;;;25.10;90.00;;;;;;5113513;28;20370;-42
2023/06/21 12:36:23;;;;;;;;;;;25.10;90.20;;;;;;5118128;28;19908;-40
2023/06/21 12:38:57;;;;;;;;;;;25.20;90.00;;;;;;5118450;28;19914;-41
2023/06/21 12:41:24;;;;;;;;;;;25.20;89.80;;;;;;5113688;28;19942;-42
2023/06/21 12:43:51;;;;;;;;;;;25.10;89.60;;;;;;5107587;28;19919;-39
2023/06/21 12:46:16;;;;;;;;;;;25.20;89.60;;;;;;5096070;28;19952;-40
2023/06/21 12:48:46;;;;;;;;;;;25.10;89.10;;;;;;5100691;28;20198;-40
2023/06/21 12:51:18;;;;;;;;;;;25.20;89.20;;;;;;5078925;28;19957;-40
2023/06/21 12:53:44;;;;;;;;;;;25.20;89.10;;;;;;5103809;28;20290;-42
2023/06/21 12:56:10;;;;;;;;;;;25.10;89.10;;;;;;5103348;28;19919;-40
2023/06/21 12:58:36;;;;;;;;;;;25.10;88.60;;;;;;5097366;28;19947;-39
2023/06/21 13:01:02;;;;;;;;;;;25.20;88.60;;;;;;5097180;28;20314;-39
2023/06/21 13:03:28;;;;;;;;;;;25.20;88.70;;;;;;5076911;28;19920;-40
2023/06/21 13:05:54;;;;;;;;;;;25.20;88.80;;;;;;5096591;28;19916;-40
2023/06/21 13:08:19;;;;;;;;;;;25.20;88.70;;;;;;5093282;28;19912;-39
2023/06/21 13:10:46;;;;;;;;;;;25.20;88.80;;;;;;5098674;28;20332;-38
2023/06/21 13:13:11;;;;;;;;;;;25.20;88.90;;;;;;5107885;28;19912;-38
2023/06/21 13:15:37;;;;;;;;;;;25.20;89.00;;;;;;5076101;28;19958;-41
2023/06/21 13:18:02;;;;;;;;;;;25.20;89.10;;;;;;5107396;28;19920;-42
2023/06/21 13:20:28;;;;;;;;;;;25.20;89.20;;;;;;5094742;28;19918;-41
2023/06/21 13:22:53;;;;;;;;;;;25.20;89.30;;;;;;5095609;28;20416;-40
2023/06/21 13:25:19;;;;;;;;;;;25.20;89.40;;;;;;5101786;28;19912;-39
2023/06/21 13:27:45;;;;;;;;;;;25.20;89.50;;;;;;5117046;28;19908;-40
2023/06/21 13:30:11;;;;;;;;;;;25.30;89.60;;;;;;5114701;28;19912;-40
2023/06/21 13:32:38;;;;;;;;;;;25.20;89.70;;;;;;5100941;28;19912;-39
2023/06/21 13:35:04;;;;;;;;;;;25.20;89.70;;;;;;5116942;28;19908;-40
2023/06/21 13:37:30;;;;;;;;;;;25.30;89.90;;;;;;5107520;28;19938;-40
2023/06/21 13:39:56;;;;;;;;;;;25.30;90.00;;;;;;5099333;28;20049;-41
2023/06/21 13:42:21;;;;;;;;;;;25.30;90.00;;;;;;5093269;28;20314;-40
2023/06/21 13:44:47;;;;;;;;;;;25.30;90.00;;;;;;5093098;28;19912;-40
2023/06/21 13:47:12;;;;;;;;;;;25.30;90.10;;;;;;5113997;28;19943;-39
2023/06/21 13:49:38;;;;;;;;;;;25.30;90.10;;;;;;5092947;28;19963;-41
2023/06/21 13:52:04;;;;;;;;;;;25.30;90.20;;;;;;5091394;28;19994;-40
2023/06/21 13:54:29;;;;;;;;;;;25.30;90.20;;;;;;5097764;28;19923;-40
2023/06/21 13:56:54;;;;;;;;;;;25.30;90.20;;;;;;5093093;28;20374;-42
2023/06/21 13:59:20;;;;;;;;;;;25.30;90.20;;;;;;5076799;28;20018;-40
2023/06/21 14:01:45;;;;;;;;;;;25.30;90.20;;;;;;5094232;28;19916;-40
2023/06/21 14:04:11;;;;;;;;;;;25.30;90.30;;;;;;5095011;28;20324;-40
2023/06/21 14:06:36;;;;;;;;;;;25.30;90.20;;;;;;5100648;28;19915;-41
2023/06/21 14:09:02;;;;;;;;;;;25.30;90.30;;;;;;5110836;28;20002;-40
2023/06/21 14:11:27;;;;;;;;;;;25.30;90.30;;;;;;5103865;28;19911;-41
2023/06/21 14:13:53;;;;;;;;;;;25.30;90.30;;;;;;5115942;28;20277;-40